sensor_id;sensor_type;location;lat;lon;timestamp;P1;P2;P0
82151;PMS5003;71721;47.904;-122.188;2023-10-09T00:01:36;15;15;
82151;PMS5003;71721;47.904;-122.188;2023-10-09T00:04:02;13;13;
82151;PMS5003;71721;47.904;-122.188;2023-10-09T00:06:28;13;13;
82151;PMS5003;71721;47.904;-122.188;2023-10-09T00:08:53;13;13;
82151;PMS5003;71721;47.904;-122.188;2023-10-09T00:11:18;12;11;
82151;PMS5003;71721;47.904;-122.188;2023-10-09T00:13:43;16;16;
82151;PMS5003;71721;47.904;-122.188;2023-10-09T00:16:08;13;13;
82151;PMS5003;71721;47.904;-122.188;2023-10-09T00:18:34;13;13;
82151;PMS5003;71721;47.904;-122.188;2023-10-09T00:20:59;13;12;
82151;PMS5003;71721;47.904;-122.188;2023-10-09T00:23:24;16;15;
82151;PMS5003;71721;47.904;-122.188;2023-10-09T00:25:49;16;16;
82151;PMS5003;71721;47.904;-122.188;2023-10-09T00:28:15;13;13;
82151;PMS5003;71721;47.904;-122.188;2023-10-09T00:30:41;14;13;
82151;PMS5003;71721;47.904;-122.188;2023-10-09T00:33:05;15;15;
82151;PMS5003;71721;47.904;-122.188;2023-10-09T00:35:30;15;15;
82151;PMS5003;71721;47.904;-122.188;2023-10-09T00:37:56;18;17;
82151;PMS5003;71721;47.904;-122.188;2023-10-09T00:40:21;16;16;
82151;PMS5003;71721;47.904;-122.188;2023-10-09T00:42:46;15;15;
82151;PMS5003;71721;47.904;-122.188;2023-10-09T00:45:11;15;15;
82151;PMS5003;71721;47.904;-122.188;2023-10-09T00:47:37;15;15;
82151;PMS5003;71721;47.904;-122.188;2023-10-09T00:50:02;13;12;
82151;PMS5003;71721;47.904;-122.188;2023-10-09T00:52:29;16;16;
82151;PMS5003;71721;47.904;-122.188;2023-10-09T00:54:53;16;16;
82151;PMS5003;71721;47.904;-122.188;2023-10-09T00:57:18;13;13;
82151;PMS5003;71721;47.904;-122.188;2023-10-09T00:59:43;15;15;
82151;PMS5003;71721;47.904;-122.188;2023-10-09T01:02:08;14;14;
82151;PMS5003;71721;47.904;-122.188;2023-10-09T01:04:34;17;17;
82151;PMS5003;71721;47.904;-122.188;2023-10-09T01:06:59;21;20;
82151;PMS5003;71721;47.904;-122.188;2023-10-09T01:09:24;15;15;
82151;PMS5003;71721;47.904;-122.188;2023-10-09T01:11:50;17;17;
82151;PMS5003;71721;47.904;-122.188;2023-10-09T01:14:16;17;16;
82151;PMS5003;71721;47.904;-122.188;2023-10-09T01:16:41;14;14;
82151;PMS5003;71721;47.904;-122.188;2023-10-09T01:19:06;16;16;
82151;PMS5003;71721;47.904;-122.188;2023-10-09T01:21:32;16;16;
82151;PMS5003;71721;47.904;-122.188;2023-10-09T01:23:57;15;15;
82151;PMS5003;71721;47.904;-122.188;2023-10-09T01:26:22;15;14;
82151;PMS5003;71721;47.904;-122.188;2023-10-09T01:28:48;18;18;
82151;PMS5003;71721;47.904;-122.188;2023-10-09T01:31:13;16;16;
82151;PMS5003;71721;47.904;-122.188;2023-10-09T01:33:39;18;17;
82151;PMS5003;71721;47.904;-122.188;2023-10-09T01:36:04;17;16;
82151;PMS5003;71721;47.904;-122.188;2023-10-09T01:38:29;16;16;
82151;PMS5003;71721;47.904;-122.188;2023-10-09T01:40:55;17;16;
82151;PMS5003;71721;47.904;-122.188;2023-10-09T01:43:20;19;18;
82151;PMS5003;71721;47.904;-122.188;2023-10-09T01:45:46;17;16;
82151;PMS5003;71721;47.904;-122.188;2023-10-09T01:48:11;18;17;
82151;PMS5003;71721;47.904;-122.188;2023-10-09T01:50:36;18;18;
82151;PMS5003;71721;47.904;-122.188;2023-10-09T01:53:02;17;17;
82151;PMS5003;71721;47.904;-122.188;2023-10-09T01:55:27;16;16;
82151;PMS5003;71721;47.904;-122.188;2023-10-09T01:57:52;19;17;
82151;PMS5003;71721;47.904;-122.188;2023-10-09T02:00:17;16;16;
82151;PMS5003;71721;47.904;-122.188;2023-10-09T02:02:43;20;20;
82151;PMS5003;71721;47.904;-122.188;2023-10-09T02:05:09;21;19;
82151;PMS5003;71721;47.904;-122.188;2023-10-09T02:07:35;18;18;
82151;PMS5003;71721;47.904;-122.188;2023-10-09T02:10:01;18;17;
82151;PMS5003;71721;47.904;-122.188;2023-10-09T02:12:26;15;15;
82151;PMS5003;71721;47.904;-122.188;2023-10-09T02:14:51;22;21;
82151;PMS5003;71721;47.904;-122.188;2023-10-09T02:17:17;17;17;
82151;PMS5003;71721;47.904;-122.188;2023-10-09T02:19:43;16;16;
82151;PMS5003;71721;47.904;-122.188;2023-10-09T02:22:08;18;18;
82151;PMS5003;71721;47.904;-122.188;2023-10-09T02:24:34;17;17;
82151;PMS5003;71721;47.904;-122.188;2023-10-09T02:26:59;17;17;
82151;PMS5003;71721;47.904;-122.188;2023-10-09T02:29:24;17;17;
82151;PMS5003;71721;47.904;-122.188;2023-10-09T02:31:49;17;17;
82151;PMS5003;71721;47.904;-122.188;2023-10-09T02:34:15;17;16;
82151;PMS5003;71721;47.904;-122.188;2023-10-09T02:36:41;19;18;
82151;PMS5003;71721;47.904;-122.188;2023-10-09T02:39:06;23;23;
82151;PMS5003;71721;47.904;-122.188;2023-10-09T02:41:31;18;17;
82151;PMS5003;71721;47.904;-122.188;2023-10-09T02:43:56;22;21;
82151;PMS5003;71721;47.904;-122.188;2023-10-09T02:46:21;19;19;
82151;PMS5003;71721;47.904;-122.188;2023-10-09T02:48:47;23;21;
82151;PMS5003;71721;47.904;-122.188;2023-10-09T02:51:11;21;20;
82151;PMS5003;71721;47.904;-122.188;2023-10-09T02:53:37;20;20;
82151;PMS5003;71721;47.904;-122.188;2023-10-09T02:56:02;21;20;
82151;PMS5003;71721;47.904;-122.188;2023-10-09T02:58:28;18;18;
82151;PMS5003;71721;47.904;-122.188;2023-10-09T03:00:53;19;19;
82151;PMS5003;71721;47.904;-122.188;2023-10-09T03:03:18;18;18;
82151;PMS5003;71721;47.904;-122.188;2023-10-09T03:05:44;16;16;
82151;PMS5003;71721;47.904;-122.188;2023-10-09T03:08:09;18;18;
82151;PMS5003;71721;47.904;-122.188;2023-10-09T03:10:34;21;21;
82151;PMS5003;71721;47.904;-122.188;2023-10-09T03:13:00;19;19;
82151;PMS5003;71721;47.904;-122.188;2023-10-09T03:15:26;23;22;
82151;PMS5003;71721;47.904;-122.188;2023-10-09T03:17:50;27;27;
82151;PMS5003;71721;47.904;-122.188;2023-10-09T03:20:16;27;26;
82151;PMS5003;71721;47.904;-122.188;2023-10-09T03:22:41;25;25;
82151;PMS5003;71721;47.904;-122.188;2023-10-09T03:25:07;26;26;
82151;PMS5003;71721;47.904;-122.188;2023-10-09T03:27:31;27;27;
82151;PMS5003;71721;47.904;-122.188;2023-10-09T03:29:57;27;26;
82151;PMS5003;71721;47.904;-122.188;2023-10-09T03:32:23;26;25;
82151;PMS5003;71721;47.904;-122.188;2023-10-09T03:34:48;22;22;
82151;PMS5003;71721;47.904;-122.188;2023-10-09T03:37:14;25;25;
82151;PMS5003;71721;47.904;-122.188;2023-10-09T03:39:39;23;23;
82151;PMS5003;71721;47.904;-122.188;2023-10-09T03:42:04;20;20;
82151;PMS5003;71721;47.904;-122.188;2023-10-09T03:44:30;24;23;
82151;PMS5003;71721;47.904;-122.188;2023-10-09T03:46:55;20;20;
82151;PMS5003;71721;47.904;-122.188;2023-10-09T03:49:21;21;20;
82151;PMS5003;71721;47.904;-122.188;2023-10-09T03:51:46;20;19;
82151;PMS5003;71721;47.904;-122.188;2023-10-09T03:54:11;19;19;
82151;PMS5003;71721;47.904;-122.188;2023-10-09T03:56:36;20;20;
82151;PMS5003;71721;47.904;-122.188;2023-10-09T03:59:01;21;21;
82151;PMS5003;71721;47.904;-122.188;2023-10-09T04:01:27;22;22;
82151;PMS5003;71721;47.904;-122.188;2023-10-09T04:03:52;24;23;
82151;PMS5003;71721;47.904;-122.188;2023-10-09T04:06:17;21;21;
82151;PMS5003;71721;47.904;-122.188;2023-10-09T04:08:42;26;25;
82151;PMS5003;71721;47.904;-122.188;2023-10-09T04:11:07;22;22;
82151;PMS5003;71721;47.904;-122.188;2023-10-09T04:13:33;24;23;
82151;PMS5003;71721;47.904;-122.188;2023-10-09T04:15:58;24;23;
82151;PMS5003;71721;47.904;-122.188;2023-10-09T04:18:23;21;21;
82151;PMS5003;71721;47.904;-122.188;2023-10-09T04:20:49;23;23;
82151;PMS5003;71721;47.904;-122.188;2023-10-09T04:23:14;25;24;
82151;PMS5003;71721;47.904;-122.188;2023-10-09T04:25:39;23;22;
82151;PMS5003;71721;47.904;-122.188;2023-10-09T04:28:04;26;22;
82151;PMS5003;71721;47.904;-122.188;2023-10-09T04:30:29;23;23;
82151;PMS5003;71721;47.904;-122.188;2023-10-09T04:32:54;25;25;
82151;PMS5003;71721;47.904;-122.188;2023-10-09T04:35:19;23;22;
82151;PMS5003;71721;47.904;-122.188;2023-10-09T04:37:45;22;22;
82151;PMS5003;71721;47.904;-122.188;2023-10-09T04:40:10;25;24;
82151;PMS5003;71721;47.904;-122.188;2023-10-09T04:42:35;25;24;
82151;PMS5003;71721;47.904;-122.188;2023-10-09T04:45:01;25;25;
82151;PMS5003;71721;47.904;-122.188;2023-10-09T04:47:26;24;23;
82151;PMS5003;71721;47.904;-122.188;2023-10-09T04:49:51;25;24;
82151;PMS5003;71721;47.904;-122.188;2023-10-09T04:52:17;23;23;
82151;PMS5003;71721;47.904;-122.188;2023-10-09T04:54:42;28;28;
82151;PMS5003;71721;47.904;-122.188;2023-10-09T04:57:07;24;24;
82151;PMS5003;71721;47.904;-122.188;2023-10-09T04:59:33;29;28;
82151;PMS5003;71721;47.904;-122.188;2023-10-09T05:01:58;28;28;
82151;PMS5003;71721;47.904;-122.188;2023-10-09T05:04:24;23;23;
82151;PMS5003;71721;47.904;-122.188;2023-10-09T05:06:49;24;24;
82151;PMS5003;71721;47.904;-122.188;2023-10-09T05:09:15;26;26;
82151;PMS5003;71721;47.904;-122.188;2023-10-09T05:11:40;24;24;
82151;PMS5003;71721;47.904;-122.188;2023-10-09T05:14:05;27;27;
82151;PMS5003;71721;47.904;-122.188;2023-10-09T05:16:30;24;23;
82151;PMS5003;71721;47.904;-122.188;2023-10-09T05:18:56;23;23;
82151;PMS5003;71721;47.904;-122.188;2023-10-09T05:21:21;26;26;
82151;PMS5003;71721;47.904;-122.188;2023-10-09T05:23:51;27;26;
82151;PMS5003;71721;47.904;-122.188;2023-10-09T05:26:12;24;24;
82151;PMS5003;71721;47.904;-122.188;2023-10-09T05:28:37;26;26;
82151;PMS5003;71721;47.904;-122.188;2023-10-09T05:31:02;24;24;
82151;PMS5003;71721;47.904;-122.188;2023-10-09T05:33:28;26;26;
82151;PMS5003;71721;47.904;-122.188;2023-10-09T05:35:53;26;25;
82151;PMS5003;71721;47.904;-122.188;2023-10-09T05:38:19;30;30;
82151;PMS5003;71721;47.904;-122.188;2023-10-09T05:40:45;24;24;
82151;PMS5003;71721;47.904;-122.188;2023-10-09T05:43:10;27;27;
82151;PMS5003;71721;47.904;-122.188;2023-10-09T05:45:35;25;25;
82151;PMS5003;71721;47.904;-122.188;2023-10-09T05:48:00;20;20;
82151;PMS5003;71721;47.904;-122.188;2023-10-09T05:50:25;23;23;
82151;PMS5003;71721;47.904;-122.188;2023-10-09T05:52:50;26;26;
82151;PMS5003;71721;47.904;-122.188;2023-10-09T05:55:16;29;28;
82151;PMS5003;71721;47.904;-122.188;2023-10-09T05:57:41;23;22;
82151;PMS5003;71721;47.904;-122.188;2023-10-09T06:00:07;20;20;
82151;PMS5003;71721;47.904;-122.188;2023-10-09T06:02:32;20;20;
82151;PMS5003;71721;47.904;-122.188;2023-10-09T06:04:57;23;22;
82151;PMS5003;71721;47.904;-122.188;2023-10-09T06:07:23;26;24;
82151;PMS5003;71721;47.904;-122.188;2023-10-09T06:09:48;23;23;
82151;PMS5003;71721;47.904;-122.188;2023-10-09T06:12:14;19;19;
82151;PMS5003;71721;47.904;-122.188;2023-10-09T06:14:39;25;24;
82151;PMS5003;71721;47.904;-122.188;2023-10-09T06:17:05;19;19;
82151;PMS5003;71721;47.904;-122.188;2023-10-09T06:19:30;23;23;
82151;PMS5003;71721;47.904;-122.188;2023-10-09T06:21:56;22;22;
82151;PMS5003;71721;47.904;-122.188;2023-10-09T06:24:22;22;22;
82151;PMS5003;71721;47.904;-122.188;2023-10-09T06:26:47;23;23;
82151;PMS5003;71721;47.904;-122.188;2023-10-09T06:29:12;22;21;
82151;PMS5003;71721;47.904;-122.188;2023-10-09T06:31:38;19;19;
82151;PMS5003;71721;47.904;-122.188;2023-10-09T06:34:04;20;20;
82151;PMS5003;71721;47.904;-122.188;2023-10-09T06:36:29;20;20;
82151;PMS5003;71721;47.904;-122.188;2023-10-09T06:38:54;22;22;
82151;PMS5003;71721;47.904;-122.188;2023-10-09T06:41:19;21;20;
82151;PMS5003;71721;47.904;-122.188;2023-10-09T06:43:45;22;21;
82151;PMS5003;71721;47.904;-122.188;2023-10-09T06:46:15;25;25;
82151;PMS5003;71721;47.904;-122.188;2023-10-09T06:48:35;21;21;
82151;PMS5003;71721;47.904;-122.188;2023-10-09T06:51:02;21;20;
82151;PMS5003;71721;47.904;-122.188;2023-10-09T06:53:26;22;22;
82151;PMS5003;71721;47.904;-122.188;2023-10-09T06:55:51;21;21;
82151;PMS5003;71721;47.904;-122.188;2023-10-09T06:58:17;22;21;
82151;PMS5003;71721;47.904;-122.188;2023-10-09T07:00:42;21;21;
82151;PMS5003;71721;47.904;-122.188;2023-10-09T07:03:08;23;22;
82151;PMS5003;71721;47.904;-122.188;2023-10-09T07:05:33;19;17;
82151;PMS5003;71721;47.904;-122.188;2023-10-09T07:07:59;18;17;
82151;PMS5003;71721;47.904;-122.188;2023-10-09T07:10:24;20;19;
82151;PMS5003;71721;47.904;-122.188;2023-10-09T07:12:49;22;22;
82151;PMS5003;71721;47.904;-122.188;2023-10-09T07:15:14;20;19;
82151;PMS5003;71721;47.904;-122.188;2023-10-09T07:17:40;18;17;
82151;PMS5003;71721;47.904;-122.188;2023-10-09T07:20:06;21;21;
82151;PMS5003;71721;47.904;-122.188;2023-10-09T07:22:30;17;17;
82151;PMS5003;71721;47.904;-122.188;2023-10-09T07:24:56;18;18;
82151;PMS5003;71721;47.904;-122.188;2023-10-09T07:27:21;21;20;
82151;PMS5003;71721;47.904;-122.188;2023-10-09T07:29:46;18;18;
82151;PMS5003;71721;47.904;-122.188;2023-10-09T07:32:12;18;17;
82151;PMS5003;71721;47.904;-122.188;2023-10-09T07:34:37;22;21;
82151;PMS5003;71721;47.904;-122.188;2023-10-09T07:37:02;20;20;
82151;PMS5003;71721;47.904;-122.188;2023-10-09T07:39:28;17;17;
82151;PMS5003;71721;47.904;-122.188;2023-10-09T07:41:53;20;19;
82151;PMS5003;71721;47.904;-122.188;2023-10-09T07:44:18;18;18;
82151;PMS5003;71721;47.904;-122.188;2023-10-09T07:46:44;19;19;
82151;PMS5003;71721;47.904;-122.188;2023-10-09T07:49:09;19;18;
82151;PMS5003;71721;47.904;-122.188;2023-10-09T07:51:35;19;19;
82151;PMS5003;71721;47.904;-122.188;2023-10-09T07:54:00;21;21;
82151;PMS5003;71721;47.904;-122.188;2023-10-09T07:56:25;19;17;
82151;PMS5003;71721;47.904;-122.188;2023-10-09T07:58:51;21;20;
82151;PMS5003;71721;47.904;-122.188;2023-10-09T08:01:16;19;19;
82151;PMS5003;71721;47.904;-122.188;2023-10-09T08:03:41;20;20;
82151;PMS5003;71721;47.904;-122.188;2023-10-09T08:06:07;18;18;
82151;PMS5003;71721;47.904;-122.188;2023-10-09T08:08:32;19;19;
82151;PMS5003;71721;47.904;-122.188;2023-10-09T08:10:58;19;18;
82151;PMS5003;71721;47.904;-122.188;2023-10-09T08:13:23;20;19;
82151;PMS5003;71721;47.904;-122.188;2023-10-09T08:15:55;19;19;
82151;PMS5003;71721;47.904;-122.188;2023-10-09T08:18:14;19;19;
82151;PMS5003;71721;47.904;-122.188;2023-10-09T08:20:39;18;18;
82151;PMS5003;71721;47.904;-122.188;2023-10-09T08:23:04;18;18;
82151;PMS5003;71721;47.904;-122.188;2023-10-09T08:25:30;21;21;
82151;PMS5003;71721;47.904;-122.188;2023-10-09T08:27:56;17;17;
82151;PMS5003;71721;47.904;-122.188;2023-10-09T08:30:22;19;19;
82151;PMS5003;71721;47.904;-122.188;2023-10-09T08:32:47;20;20;
82151;PMS5003;71721;47.904;-122.188;2023-10-09T08:35:13;20;20;
82151;PMS5003;71721;47.904;-122.188;2023-10-09T08:37:38;21;20;
82151;PMS5003;71721;47.904;-122.188;2023-10-09T08:40:04;26;25;
82151;PMS5003;71721;47.904;-122.188;2023-10-09T08:42:29;24;24;
82151;PMS5003;71721;47.904;-122.188;2023-10-09T08:44:55;27;25;
82151;PMS5003;71721;47.904;-122.188;2023-10-09T08:47:20;28;25;
82151;PMS5003;71721;47.904;-122.188;2023-10-09T08:49:45;20;20;
82151;PMS5003;71721;47.904;-122.188;2023-10-09T08:52:11;23;23;
82151;PMS5003;71721;47.904;-122.188;2023-10-09T08:54:36;26;25;
82151;PMS5003;71721;47.904;-122.188;2023-10-09T08:57:01;27;26;
82151;PMS5003;71721;47.904;-122.188;2023-10-09T08:59:26;24;24;
82151;PMS5003;71721;47.904;-122.188;2023-10-09T09:01:52;24;23;
82151;PMS5003;71721;47.904;-122.188;2023-10-09T09:04:49;24;24;
82151;PMS5003;71721;47.904;-122.188;2023-10-09T09:06:42;26;26;
82151;PMS5003;71721;47.904;-122.188;2023-10-09T09:09:10;24;24;
82151;PMS5003;71721;47.904;-122.188;2023-10-09T09:11:35;26;26;
82151;PMS5003;71721;47.904;-122.188;2023-10-09T09:14:00;27;27;
82151;PMS5003;71721;47.904;-122.188;2023-10-09T09:16:25;28;27;
82151;PMS5003;71721;47.904;-122.188;2023-10-09T09:18:51;27;27;
82151;PMS5003;71721;47.904;-122.188;2023-10-09T09:21:17;29;28;
82151;PMS5003;71721;47.904;-122.188;2023-10-09T09:23:40;28;27;
82151;PMS5003;71721;47.904;-122.188;2023-10-09T09:26:05;26;26;
82151;PMS5003;71721;47.904;-122.188;2023-10-09T09:28:30;25;25;
82151;PMS5003;71721;47.904;-122.188;2023-10-09T09:30:56;26;23;
82151;PMS5003;71721;47.904;-122.188;2023-10-09T09:33:21;24;24;
82151;PMS5003;71721;47.904;-122.188;2023-10-09T09:36:03;22;22;
82151;PMS5003;71721;47.904;-122.188;2023-10-09T09:38:11;28;27;
82151;PMS5003;71721;47.904;-122.188;2023-10-09T09:40:36;29;29;
82151;PMS5003;71721;47.904;-122.188;2023-10-09T09:43:02;26;24;
82151;PMS5003;71721;47.904;-122.188;2023-10-09T09:45:27;25;25;
82151;PMS5003;71721;47.904;-122.188;2023-10-09T09:47:52;23;23;
82151;PMS5003;71721;47.904;-122.188;2023-10-09T09:50:18;20;20;
82151;PMS5003;71721;47.904;-122.188;2023-10-09T09:52:43;24;24;
82151;PMS5003;71721;47.904;-122.188;2023-10-09T09:55:10;21;21;
82151;PMS5003;71721;47.904;-122.188;2023-10-09T09:57:34;23;22;
82151;PMS5003;71721;47.904;-122.188;2023-10-09T10:00:04;21;21;
82151;PMS5003;71721;47.904;-122.188;2023-10-09T10:02:26;22;22;
82151;PMS5003;71721;47.904;-122.188;2023-10-09T10:04:52;21;21;
82151;PMS5003;71721;47.904;-122.188;2023-10-09T10:07:15;26;23;
82151;PMS5003;71721;47.904;-122.188;2023-10-09T10:09:41;19;19;
82151;PMS5003;71721;47.904;-122.188;2023-10-09T10:12:06;18;18;
82151;PMS5003;71721;47.904;-122.188;2023-10-09T10:14:36;22;22;
82151;PMS5003;71721;47.904;-122.188;2023-10-09T10:17:00;20;20;
82151;PMS5003;71721;47.904;-122.188;2023-10-09T10:19:22;18;18;
82151;PMS5003;71721;47.904;-122.188;2023-10-09T10:21:47;18;18;
82151;PMS5003;71721;47.904;-122.188;2023-10-09T10:24:45;18;17;
82151;PMS5003;71721;47.904;-122.188;2023-10-09T10:26:38;21;19;
82151;PMS5003;71721;47.904;-122.188;2023-10-09T10:29:20;18;18;
82151;PMS5003;71721;47.904;-122.188;2023-10-09T10:31:51;16;16;
82151;PMS5003;71721;47.904;-122.188;2023-10-09T10:34:10;14;14;
82151;PMS5003;71721;47.904;-122.188;2023-10-09T10:36:20;21;19;
82151;PMS5003;71721;47.904;-122.188;2023-10-09T10:38:58;13;12;
82151;PMS5003;71721;47.904;-122.188;2023-10-09T10:41:12;12;12;
82151;PMS5003;71721;47.904;-122.188;2023-10-09T10:43:36;11;11;
82151;PMS5003;71721;47.904;-122.188;2023-10-09T10:46:02;11;11;
82151;PMS5003;71721;47.904;-122.188;2023-10-09T10:48:27;11;11;
82151;PMS5003;71721;47.904;-122.188;2023-10-09T10:50:56;10;10;
82151;PMS5003;71721;47.904;-122.188;2023-10-09T10:53:18;9;9;
82151;PMS5003;71721;47.904;-122.188;2023-10-09T10:55:54;7;7;
82151;PMS5003;71721;47.904;-122.188;2023-10-09T10:58:16;9;9;
82151;PMS5003;71721;47.904;-122.188;2023-10-09T11:00:34;6;6;
82151;PMS5003;71721;47.904;-122.188;2023-10-09T11:02:59;8;8;
82151;PMS5003;71721;47.904;-122.188;2023-10-09T11:05:25;7;6;
82151;PMS5003;71721;47.904;-122.188;2023-10-09T11:07:51;8;8;
82151;PMS5003;71721;47.904;-122.188;2023-10-09T11:10:21;7;7;
82151;PMS5003;71721;47.904;-122.188;2023-10-09T11:12:42;7;6;
82151;PMS5003;71721;47.904;-122.188;2023-10-09T11:15:07;6;6;
82151;PMS5003;71721;47.904;-122.188;2023-10-09T11:17:32;8;8;
82151;PMS5003;71721;47.904;-122.188;2023-10-09T11:19:57;7;7;
82151;PMS5003;71721;47.904;-122.188;2023-10-09T11:22:22;9;9;
82151;PMS5003;71721;47.904;-122.188;2023-10-09T11:24:48;12;11;
82151;PMS5003;71721;47.904;-122.188;2023-10-09T11:27:13;10;10;
82151;PMS5003;71721;47.904;-122.188;2023-10-09T11:29:40;11;11;
82151;PMS5003;71721;47.904;-122.188;2023-10-09T11:32:05;11;11;
82151;PMS5003;71721;47.904;-122.188;2023-10-09T11:34:30;15;15;
82151;PMS5003;71721;47.904;-122.188;2023-10-09T11:36:56;14;14;
82151;PMS5003;71721;47.904;-122.188;2023-10-09T11:39:23;14;14;
82151;PMS5003;71721;47.904;-122.188;2023-10-09T11:41:46;11;11;
82151;PMS5003;71721;47.904;-122.188;2023-10-09T11:44:11;15;14;
82151;PMS5003;71721;47.904;-122.188;2023-10-09T11:46:36;14;14;
82151;PMS5003;71721;47.904;-122.188;2023-10-09T11:49:04;13;12;
82151;PMS5003;71721;47.904;-122.188;2023-10-09T11:51:27;13;13;
82151;PMS5003;71721;47.904;-122.188;2023-10-09T11:53:52;14;13;
82151;PMS5003;71721;47.904;-122.188;2023-10-09T11:56:18;12;12;
82151;PMS5003;71721;47.904;-122.188;2023-10-09T11:58:43;16;16;
82151;PMS5003;71721;47.904;-122.188;2023-10-09T12:01:11;12;12;
82151;PMS5003;71721;47.904;-122.188;2023-10-09T12:03:34;13;13;
82151;PMS5003;71721;47.904;-122.188;2023-10-09T12:05:59;12;12;
82151;PMS5003;71721;47.904;-122.188;2023-10-09T12:08:24;14;14;
82151;PMS5003;71721;47.904;-122.188;2023-10-09T12:10:50;13;13;
82151;PMS5003;71721;47.904;-122.188;2023-10-09T12:13:15;11;10;
82151;PMS5003;71721;47.904;-122.188;2023-10-09T12:15:41;12;12;
82151;PMS5003;71721;47.904;-122.188;2023-10-09T12:18:06;12;12;
82151;PMS5003;71721;47.904;-122.188;2023-10-09T12:20:32;14;14;
82151;PMS5003;71721;47.904;-122.188;2023-10-09T12:22:57;11;11;
82151;PMS5003;71721;47.904;-122.188;2023-10-09T12:25:22;8;8;
82151;PMS5003;71721;47.904;-122.188;2023-10-09T12:27:47;12;11;
82151;PMS5003;71721;47.904;-122.188;2023-10-09T12:30:13;10;10;
82151;PMS5003;71721;47.904;-122.188;2023-10-09T12:32:38;8;8;
82151;PMS5003;71721;47.904;-122.188;2023-10-09T12:35:05;11;11;
82151;PMS5003;71721;47.904;-122.188;2023-10-09T12:37:29;11;11;
82151;PMS5003;71721;47.904;-122.188;2023-10-09T12:39:54;12;12;
82151;PMS5003;71721;47.904;-122.188;2023-10-09T12:42:20;8;8;
82151;PMS5003;71721;47.904;-122.188;2023-10-09T12:44:46;12;12;
82151;PMS5003;71721;47.904;-122.188;2023-10-09T12:47:10;9;9;
82151;PMS5003;71721;47.904;-122.188;2023-10-09T12:49:36;12;11;
82151;PMS5003;71721;47.904;-122.188;2023-10-09T12:52:02;9;9;
82151;PMS5003;71721;47.904;-122.188;2023-10-09T12:54:27;7;7;
82151;PMS5003;71721;47.904;-122.188;2023-10-09T12:56:52;9;9;
82151;PMS5003;71721;47.904;-122.188;2023-10-09T12:59:18;9;8;
82151;PMS5003;71721;47.904;-122.188;2023-10-09T13:01:43;10;9;
82151;PMS5003;71721;47.904;-122.188;2023-10-09T13:04:09;8;8;
82151;PMS5003;71721;47.904;-122.188;2023-10-09T13:06:34;9;9;
82151;PMS5003;71721;47.904;-122.188;2023-10-09T13:08:59;10;9;
82151;PMS5003;71721;47.904;-122.188;2023-10-09T13:11:25;7;7;
82151;PMS5003;71721;47.904;-122.188;2023-10-09T13:13:50;7;7;
82151;PMS5003;71721;47.904;-122.188;2023-10-09T13:16:16;9;8;
82151;PMS5003;71721;47.904;-122.188;2023-10-09T13:18:41;8;8;
82151;PMS5003;71721;47.904;-122.188;2023-10-09T13:21:07;10;10;
82151;PMS5003;71721;47.904;-122.188;2023-10-09T13:23:32;8;8;
82151;PMS5003;71721;47.904;-122.188;2023-10-09T13:25:57;11;10;
82151;PMS5003;71721;47.904;-122.188;2023-10-09T13:28:23;7;7;
82151;PMS5003;71721;47.904;-122.188;2023-10-09T13:30:48;8;8;
82151;PMS5003;71721;47.904;-122.188;2023-10-09T13:33:13;8;8;
82151;PMS5003;71721;47.904;-122.188;2023-10-09T13:35:39;7;7;
82151;PMS5003;71721;47.904;-122.188;2023-10-09T13:38:04;6;6;
82151;PMS5003;71721;47.904;-122.188;2023-10-09T13:40:30;9;8;
82151;PMS5003;71721;47.904;-122.188;2023-10-09T13:42:55;8;7;
82151;PMS5003;71721;47.904;-122.188;2023-10-09T13:45:21;8;8;
82151;PMS5003;71721;47.904;-122.188;2023-10-09T13:47:46;8;8;
82151;PMS5003;71721;47.904;-122.188;2023-10-09T13:50:11;8;7;
82151;PMS5003;71721;47.904;-122.188;2023-10-09T13:52:37;9;9;
82151;PMS5003;71721;47.904;-122.188;2023-10-09T13:55:02;7;7;
82151;PMS5003;71721;47.904;-122.188;2023-10-09T13:57:28;8;8;
82151;PMS5003;71721;47.904;-122.188;2023-10-09T13:59:53;7;7;
82151;PMS5003;71721;47.904;-122.188;2023-10-09T14:02:18;6;6;
82151;PMS5003;71721;47.904;-122.188;2023-10-09T14:04:44;8;7;
82151;PMS5003;71721;47.904;-122.188;2023-10-09T14:07:09;8;7;
82151;PMS5003;71721;47.904;-122.188;2023-10-09T14:09:35;9;9;
82151;PMS5003;71721;47.904;-122.188;2023-10-09T14:12:00;8;8;
82151;PMS5003;71721;47.904;-122.188;2023-10-09T14:14:26;6;6;
82151;PMS5003;71721;47.904;-122.188;2023-10-09T14:16:51;8;8;
82151;PMS5003;71721;47.904;-122.188;2023-10-09T14:19:16;9;9;
82151;PMS5003;71721;47.904;-122.188;2023-10-09T14:21:43;9;9;
82151;PMS5003;71721;47.904;-122.188;2023-10-09T14:24:08;7;7;
82151;PMS5003;71721;47.904;-122.188;2023-10-09T14:26:33;7;6;
82151;PMS5003;71721;47.904;-122.188;2023-10-09T14:28:58;9;8;
82151;PMS5003;71721;47.904;-122.188;2023-10-09T14:31:24;9;9;
82151;PMS5003;71721;47.904;-122.188;2023-10-09T14:33:49;8;7;
82151;PMS5003;71721;47.904;-122.188;2023-10-09T14:36:14;7;7;
82151;PMS5003;71721;47.904;-122.188;2023-10-09T14:38:40;9;8;
82151;PMS5003;71721;47.904;-122.188;2023-10-09T14:41:06;8;7;
82151;PMS5003;71721;47.904;-122.188;2023-10-09T14:43:31;9;8;
82151;PMS5003;71721;47.904;-122.188;2023-10-09T14:45:56;10;9;
82151;PMS5003;71721;47.904;-122.188;2023-10-09T14:48:21;13;12;
82151;PMS5003;71721;47.904;-122.188;2023-10-09T14:50:47;13;12;
82151;PMS5003;71721;47.904;-122.188;2023-10-09T14:53:12;9;9;
82151;PMS5003;71721;47.904;-122.188;2023-10-09T14:55:38;9;9;
82151;PMS5003;71721;47.904;-122.188;2023-10-09T14:58:03;9;9;
82151;PMS5003;71721;47.904;-122.188;2023-10-09T15:00:28;10;10;
82151;PMS5003;71721;47.904;-122.188;2023-10-09T15:02:54;25;24;
82151;PMS5003;71721;47.904;-122.188;2023-10-09T15:05:19;15;14;
82151;PMS5003;71721;47.904;-122.188;2023-10-09T15:07:45;14;12;
82151;PMS5003;71721;47.904;-122.188;2023-10-09T15:10:10;10;10;
82151;PMS5003;71721;47.904;-122.188;2023-10-09T15:12:35;9;8;
82151;PMS5003;71721;47.904;-122.188;2023-10-09T15:15:01;9;9;
82151;PMS5003;71721;47.904;-122.188;2023-10-09T15:17:26;8;7;
82151;PMS5003;71721;47.904;-122.188;2023-10-09T15:19:52;9;9;
82151;PMS5003;71721;47.904;-122.188;2023-10-09T15:22:17;11;10;
82151;PMS5003;71721;47.904;-122.188;2023-10-09T15:24:42;12;11;